sensor_id;sensor_type;location;lat;lon;timestamp;temperature;humidity
21518;DHT22;61765;45.794;24.150;2023-10-13T00:06:42;17.10;86.00
21518;DHT22;61765;45.794;24.150;2023-10-13T00:14:51;17.30;85.40
21518;DHT22;61765;45.794;24.150;2023-10-13T00:22:56;17.20;85.40
21518;DHT22;61765;45.794;24.150;2023-10-13T00:31:05;17.40;85.20
21518;DHT22;61765;45.794;24.150;2023-10-13T00:39:16;17.20;85.40
21518;DHT22;61765;45.794;24.150;2023-10-13T00:47:27;17.00;86.40
21518;DHT22;61765;45.794;24.150;2023-10-13T00:55:50;17.00;86.60
21518;DHT22;61765;45.794;24.150;2023-10-13T01:04:01;17.00;86.10
21518;DHT22;61765;45.794;24.150;2023-10-13T01:12:11;17.20;86.50
21518;DHT22;61765;45.794;24.150;2023-10-13T01:20:19;16.70;86.60
21518;DHT22;61765;45.794;24.150;2023-10-13T01:28:30;16.90;86.60
21518;DHT22;61765;45.794;24.150;2023-10-13T01:36:47;16.70;86.50
21518;DHT22;61765;45.794;24.150;2023-10-13T01:44:56;16.50;87.60
21518;DHT22;61765;45.794;24.150;2023-10-13T01:53:08;16.40;88.10
21518;DHT22;61765;45.794;24.150;2023-10-13T02:01:22;16.30;88.30
21518;DHT22;61765;45.794;24.150;2023-10-13T02:09:36;16.30;87.80
21518;DHT22;61765;45.794;24.150;2023-10-13T02:17:44;16.40;87.60
21518;DHT22;61765;45.794;24.150;2023-10-13T02:25:54;16.60;87.30
21518;DHT22;61765;45.794;24.150;2023-10-13T02:34:05;16.60;86.80
21518;DHT22;61765;45.794;24.150;2023-10-13T02:42:14;16.60;86.90
21518;DHT22;61765;45.794;24.150;2023-10-13T02:50:28;16.60;86.70
21518;DHT22;61765;45.794;24.150;2023-10-13T02:58:35;16.60;86.50
21518;DHT22;61765;45.794;24.150;2023-10-13T03:06:50;16.50;86.60
21518;DHT22;61765;45.794;24.150;2023-10-13T03:14:56;16.30;86.50
21518;DHT22;61765;45.794;24.150;2023-10-13T03:23:17;16.20;86.70
21518;DHT22;61765;45.794;24.150;2023-10-13T03:31:23;16.00;87.20
21518;DHT22;61765;45.794;24.150;2023-10-13T03:39:34;16.20;87.00
21518;DHT22;61765;45.794;24.150;2023-10-13T03:47:39;16.10;86.70
21518;DHT22;61765;45.794;24.150;2023-10-13T03:55:51;15.80;87.80
21518;DHT22;61765;45.794;24.150;2023-10-13T04:04:11;15.80;87.70
21518;DHT22;61765;45.794;24.150;2023-10-13T04:12:20;15.90;87.90
21518;DHT22;61765;45.794;24.150;2023-10-13T04:20:41;15.50;89.70
21518;DHT22;61765;45.794;24.150;2023-10-13T04:28:51;15.80;89.40
21518;DHT22;61765;45.794;24.150;2023-10-13T04:36:59;15.80;89.00
21518;DHT22;61765;45.794;24.150;2023-10-13T04:45:31;15.70;89.80
21518;DHT22;61765;45.794;24.150;2023-10-13T04:53:56;15.90;89.30
21518;DHT22;61765;45.794;24.150;2023-10-13T05:02:31;16.00;88.60
21518;DHT22;61765;45.794;24.150;2023-10-13T05:11:03;16.00;88.40
21518;DHT22;61765;45.794;24.150;2023-10-13T05:19:36;16.00;87.90
21518;DHT22;61765;45.794;24.150;2023-10-13T05:27:54;16.00;88.40
21518;DHT22;61765;45.794;24.150;2023-10-13T05:36:30;16.20;88.40
21518;DHT22;61765;45.794;24.150;2023-10-13T05:44:47;16.20;88.30
21518;DHT22;61765;45.794;24.150;2023-10-13T05:53:01;15.80;88.90
21518;DHT22;61765;45.794;24.150;2023-10-13T06:01:19;16.00;89.00
21518;DHT22;61765;45.794;24.150;2023-10-13T06:09:39;15.90;89.40
21518;DHT22;61765;45.794;24.150;2023-10-13T06:17:57;16.20;88.80
21518;DHT22;61765;45.794;24.150;2023-10-13T06:26:19;16.20;88.40
21518;DHT22;61765;45.794;24.150;2023-10-13T06:34:37;16.50;88.40
21518;DHT22;61765;45.794;24.150;2023-10-13T06:42:50;16.70;87.50
21518;DHT22;61765;45.794;24.150;2023-10-13T06:50:57;16.80;87.50
21518;DHT22;61765;45.794;24.150;2023-10-13T06:59:09;17.30;86.00
21518;DHT22;61765;45.794;24.150;2023-10-13T07:07:16;17.70;84.90
21518;DHT22;61765;45.794;24.150;2023-10-13T07:15:27;17.80;85.10
21518;DHT22;61765;45.794;24.150;2023-10-13T07:23:33;18.00;84.60
21518;DHT22;61765;45.794;24.150;2023-10-13T07:31:41;18.20;84.10
21518;DHT22;61765;45.794;24.150;2023-10-13T07:39:48;18.30;83.40
21518;DHT22;61765;45.794;24.150;2023-10-13T07:47:56;18.60;82.80
21518;DHT22;61765;45.794;24.150;2023-10-13T07:56:03;18.70;84.10
21518;DHT22;61765;45.794;24.150;2023-10-13T08:04:12;20.10;80.30
21518;DHT22;61765;45.794;24.150;2023-10-13T08:12:31;21.10;75.70
21518;DHT22;61765;45.794;24.150;2023-10-13T08:20:42;19.80;79.60
21518;DHT22;61765;45.794;24.150;2023-10-13T08:28:49;20.30;78.00
21518;DHT22;61765;45.794;24.150;2023-10-13T08:37:02;21.00;77.50
21518;DHT22;61765;45.794;24.150;2023-10-13T08:45:22;21.70;76.00
21518;DHT22;61765;45.794;24.150;2023-10-13T08:53:51;21.80;75.10
21518;DHT22;61765;45.794;24.150;2023-10-13T09:02:00;22.20;74.40
21518;DHT22;61765;45.794;24.150;2023-10-13T09:10:25;22.70;72.40
21518;DHT22;61765;45.794;24.150;2023-10-13T09:18:47;24.90;69.70
21518;DHT22;61765;45.794;24.150;2023-10-13T09:26:58;27.20;62.10
21518;DHT22;61765;45.794;24.150;2023-10-13T09:35:07;26.10;62.80
21518;DHT22;61765;45.794;24.150;2023-10-13T09:43:19;25.40;65.20
21518;DHT22;61765;45.794;24.150;2023-10-13T09:51:25;25.20;66.20
21518;DHT22;61765;45.794;24.150;2023-10-13T09:59:42;25.70;64.70
21518;DHT22;61765;45.794;24.150;2023-10-13T10:07:55;25.80;63.90
21518;DHT22;61765;45.794;24.150;2023-10-13T10:16:10;26.50;62.50
21518;DHT22;61765;45.794;24.150;2023-10-13T10:24:24;26.80;61.40
21518;DHT22;61765;45.794;24.150;2023-10-13T10:32:38;27.20;63.00
21518;DHT22;61765;45.794;24.150;2023-10-13T10:40:53;32.70;55.00
21518;DHT22;61765;45.794;24.150;2023-10-13T10:49:06;33.90;51.00
21518;DHT22;61765;45.794;24.150;2023-10-13T10:57:14;35.40;49.20
21518;DHT22;61765;45.794;24.150;2023-10-13T11:05:25;32.20;50.20
21518;DHT22;61765;45.794;24.150;2023-10-13T11:13:47;29.00;55.30
21518;DHT22;61765;45.794;24.150;2023-10-13T11:22:10;26.90;58.50
21518;DHT22;61765;45.794;24.150;2023-10-13T11:30:32;27.10;59.00
21518;DHT22;61765;45.794;24.150;2023-10-13T11:38:50;26.80;59.20
21518;DHT22;61765;45.794;24.150;2023-10-13T11:47:00;26.80;59.20
21518;DHT22;61765;45.794;24.150;2023-10-13T11:55:35;26.30;59.80
21518;DHT22;61765;45.794;24.150;2023-10-13T12:03:41;26.30;59.20
21518;DHT22;61765;45.794;24.150;2023-10-13T12:12:02;26.50;59.70
21518;DHT22;61765;45.794;24.150;2023-10-13T12:20:08;26.40;60.20
21518;DHT22;61765;45.794;24.150;2023-10-13T12:28:37;26.20;60.30
21518;DHT22;61765;45.794;24.150;2023-10-13T12:36:53;26.40;60.80
21518;DHT22;61765;45.794;24.150;2023-10-13T12:45:11;26.00;61.90
21518;DHT22;61765;45.794;24.150;2023-10-13T12:53:28;26.40;61.00
21518;DHT22;61765;45.794;24.150;2023-10-13T13:01:36;26.50;60.70
21518;DHT22;61765;45.794;24.150;2023-10-13T13:09:44;26.60;60.90
21518;DHT22;61765;45.794;24.150;2023-10-13T13:17:55;26.40;62.40
21518;DHT22;61765;45.794;24.150;2023-10-13T13:26:01;26.50;61.80
21518;DHT22;61765;45.794;24.150;2023-10-13T13:34:20;26.30;62.50
21518;DHT22;61765;45.794;24.150;2023-10-13T13:42:26;26.20;62.40
21518;DHT22;61765;45.794;24.150;2023-10-13T13:50:37;26.20;63.10
21518;DHT22;61765;45.794;24.150;2023-10-13T13:58:44;26.20;64.60
21518;DHT22;61765;45.794;24.150;2023-10-13T14:06:52;26.30;64.50
21518;DHT22;61765;45.794;24.150;2023-10-13T14:14:58;26.00;64.90
21518;DHT22;61765;45.794;24.150;2023-10-13T14:23:06;25.90;65.10
21518;DHT22;61765;45.794;24.150;2023-10-13T14:31:14;26.00;65.10
21518;DHT22;61765;45.794;24.150;2023-10-13T14:39:23;25.80;65.30
21518;DHT22;61765;45.794;24.150;2023-10-13T14:47:32;25.70;65.60
21518;DHT22;61765;45.794;24.150;2023-10-13T14:55:44;25.60;65.60
21518;DHT22;61765;45.794;24.150;2023-10-13T15:03:51;25.40;65.60
21518;DHT22;61765;45.794;24.150;2023-10-13T15:12:02;25.30;66.00
21518;DHT22;61765;45.794;24.150;2023-10-13T15:20:08;24.90;67.50
21518;DHT22;61765;45.794;24.150;2023-10-13T15:28:21;24.90;68.10
21518;DHT22;61765;45.794;24.150;2023-10-13T15:36:33;24.80;68.50
21518;DHT22;61765;45.794;24.150;2023-10-13T15:44:44;24.70;68.80
21518;DHT22;61765;45.794;24.150;2023-10-13T15:52:51;24.40;69.30
21518;DHT22;61765;45.794;24.150;2023-10-13T16:00:59;24.20;70.00
21518;DHT22;61765;45.794;24.150;2023-10-13T16:09:05;24.10;70.70
21518;DHT22;61765;45.794;24.150;2023-10-13T16:17:19;24.00;72.00
21518;DHT22;61765;45.794;24.150;2023-10-13T16:25:26;23.70;72.30
21518;DHT22;61765;45.794;24.150;2023-10-13T16:33:35;23.50;73.30
21518;DHT22;61765;45.794;24.150;2023-10-13T16:41:42;23.40;74.10
21518;DHT22;61765;45.794;24.150;2023-10-13T16:49:51;23.20;75.40
21518;DHT22;61765;45.794;24.150;2023-10-13T16:57:56;22.90;77.00
21518;DHT22;61765;45.794;24.150;2023-10-13T17:06:06;22.70;78.20
21518;DHT22;61765;45.794;24.150;2023-10-13T17:14:12;22.60;78.60
21518;DHT22;61765;45.794;24.150;2023-10-13T17:22:20;22.40;79.00
21518;DHT22;61765;45.794;24.150;2023-10-13T17:30:25;22.30;79.40
21518;DHT22;61765;45.794;24.150;2023-10-13T17:38:34;22.20;80.00
21518;DHT22;61765;45.794;24.150;2023-10-13T17:46:43;22.10;80.20
21518;DHT22;61765;45.794;24.150;2023-10-13T17:54:52;21.80;80.90
21518;DHT22;61765;45.794;24.150;2023-10-13T18:02:58;21.80;80.80
21518;DHT22;61765;45.794;24.150;2023-10-13T18:11:09;21.50;81.70
21518;DHT22;61765;45.794;24.150;2023-10-13T18:19:15;21.40;82.00
21518;DHT22;61765;45.794;24.150;2023-10-13T18:27:26;21.30;82.10
21518;DHT22;61765;45.794;24.150;2023-10-13T18:35:32;21.40;82.00
21518;DHT22;61765;45.794;24.150;2023-10-13T18:43:43;21.10;82.70
21518;DHT22;61765;45.794;24.150;2023-10-13T18:51:50;21.10;81.90
21518;DHT22;61765;45.794;24.150;2023-10-13T19:00:02;20.90;82.00
21518;DHT22;61765;45.794;24.150;2023-10-13T19:08:09;20.90;82.10
21518;DHT22;61765;45.794;24.150;2023-10-13T19:16:19;20.90;82.00
21518;DHT22;61765;45.794;24.150;2023-10-13T19:24:29;20.70;83.00
21518;DHT22;61765;45.794;24.150;2023-10-13T19:32:39;20.70;82.60
21518;DHT22;61765;45.794;24.150;2023-10-13T19:40:45;20.40;83.10
21518;DHT22;61765;45.794;24.150;2023-10-13T19:48:55;20.20;83.60
21518;DHT22;61765;45.794;24.150;2023-10-13T19:57:01;20.20;83.70
21518;DHT22;61765;45.794;24.150;2023-10-13T20:05:09;19.90;84.40
21518;DHT22;61765;45.794;24.150;2023-10-13T20:13:19;19.80;84.70
21518;DHT22;61765;45.794;24.150;2023-10-13T20:21:29;19.70;85.40
21518;DHT22;61765;45.794;24.150;2023-10-13T20:29:38;19.50;84.80
21518;DHT22;61765;45.794;24.150;2023-10-13T20:37:46;19.30;84.80
21518;DHT22;61765;45.794;24.150;2023-10-13T20:45:52;19.30;84.80
21518;DHT22;61765;45.794;24.150;2023-10-13T20:54:03;19.30;84.40
21518;DHT22;61765;45.794;24.150;2023-10-13T21:02:13;19.30;84.10
21518;DHT22;61765;45.794;24.150;2023-10-13T21:10:27;19.20;84.60
21518;DHT22;61765;45.794;24.150;2023-10-13T21:18:34;19.10;84.60
21518;DHT22;61765;45.794;24.150;2023-10-13T21:26:42;19.10;85.00
21518;DHT22;61765;45.794;24.150;2023-10-13T21:34:51;19.10;85.30
21518;DHT22;61765;45.794;24.150;2023-10-13T21:43:00;19.00;85.70
21518;DHT22;61765;45.794;24.150;2023-10-13T21:51:08;19.00;85.70
21518;DHT22;61765;45.794;24.150;2023-10-13T21:59:17;19.00;85.60
21518;DHT22;61765;45.794;24.150;2023-10-13T22:07:23;19.00;85.60
21518;DHT22;61765;45.794;24.150;2023-10-13T22:15:31;18.70;86.30
21518;DHT22;61765;45.794;24.150;2023-10-13T22:23:37;18.50;86.40
21518;DHT22;61765;45.794;24.150;2023-10-13T22:31:46;18.60;86.20
21518;DHT22;61765;45.794;24.150;2023-10-13T22:39:52;18.60;86.20
21518;DHT22;61765;45.794;24.150;2023-10-13T22:48:00;18.50;85.80
21518;DHT22;61765;45.794;24.150;2023-10-13T22:56:07;18.40;86.30
21518;DHT22;61765;45.794;24.150;2023-10-13T23:04:15;18.20;86.40
21518;DHT22;61765;45.794;24.150;2023-10-13T23:12:20;18.20;86.50
21518;DHT22;61765;45.794;24.150;2023-10-13T23:20:31;18.10;86.50
21518;DHT22;61765;45.794;24.150;2023-10-13T23:28:37;18.10;86.40
21518;DHT22;61765;45.794;24.150;2023-10-13T23:36:45;18.10;86.50
21518;DHT22;61765;45.794;24.150;2023-10-13T23:44:51;18.10;86.40
21518;DHT22;61765;45.794;24.150;2023-10-13T23:53:11;18.10;86.50
